Westonzoyland, United Kingdom
Current Conditions -  °F | °C
As of 2:50 PM on Monday 24 Nov 2014 (Local Time) from EGDY Reporting Station
Scattered Clouds Scattered Clouds  
Wind Chill: 46°   Ceiling: Unl
Heat Index: 46°   Visibility: 6mi
Dew Point: 39°   Wind: 3mph
Humidity: 76%   Direction: 30°NNE
Pressure: 30.3"   Gusts: NA
Location:  51.11°N, 2.93°W
Report Text: EGDY 241450Z 03003KT 9999 FEW018 SCT200 08/04 Q1026 BLU NOSIG
Loading
Personal Weather Stations






























Interactive Weather Map New forecast layout! Learn more

10-Day Weather Forecast

Advertisements
Track Severe Weather on mobile